Time;durP1;ratioP1;P1;durP2;ratioP2;P2;SDS_P1;SDS_P2;PMS_P1;PMS_P2;Temp;Humidity;BMP_temperature;BMP_pressure;BME280_temperature;BME280_humidity;BME280_pressure;Samples;Min_cycle;Max_cycle;Signal;HPM_P1;HPM_P2
2023/10/24 00:00:16;;;;;;;13.98;9.13;;;;;;;-146.25;100.00;52497.97;2088930;28;20033;-64
2023/10/24 00:01:18;;;;;;;13.18;9.55;;;;;;;-146.25;100.00;52481.75;2095904;28;33818;-64
2023/10/24 00:02:20;;;;;;;12.88;8.77;;;;;;;-146.25;100.00;52570.97;2096053;28;20915;-64
2023/10/24 00:03:22;;;;;;;13.55;9.63;;;;;;;-146.25;100.00;52536.50;2087747;28;32918;-64
2023/10/24 00:04:27;;;;;;;12.32;9.73;;;;;;;-146.25;100.00;52514.19;2087804;28;34343;-64
2023/10/24 00:05:29;;;;;;;13.60;8.90;;;;;;;-146.25;100.00;52528.38;2087432;28;32104;-64
2023/10/24 00:06:33;;;;;;;12.77;9.65;;;;;;;-146.25;100.00;52514.19;2079943;28;20050;-64
2023/10/24 00:07:35;;;;;;;13.45;9.57;;;;;;;-146.25;100.00;52506.06;2087283;28;34767;-65
2023/10/24 00:08:37;;;;;;;12.52;9.52;;;;;;;-146.25;100.00;52534.47;2087729;28;34977;-64
2023/10/24 00:09:38;;;;;;;13.00;9.27;;;;;;;-146.25;100.00;52542.56;2088048;28;35327;-64
2023/10/24 00:10:40;;;;;;;13.05;9.43;;;;;;;-146.25;100.00;52530.41;2088001;28;36593;-64
2023/10/24 00:11:45;;;;;;;13.60;9.40;;;;;;;-146.25;100.00;52524.31;2087889;28;35683;-68
2023/10/24 00:12:47;;;;;;;14.57;10.05;;;;;;;-146.25;100.00;52546.63;2087730;28;35983;-64
2023/10/24 00:13:49;;;;;;;13.73;9.70;;;;;;;-146.25;100.00;52508.09;2088554;28;20160;-64
2023/10/24 00:14:50;;;;;;;14.55;9.90;;;;;;;-146.25;100.00;52514.19;2087691;28;35428;-64
2023/10/24 00:15:52;;;;;;;13.63;9.30;;;;;;;-146.25;100.00;52526.34;2087776;28;31286;-65
2023/10/24 00:16:54;;;;;;;14.70;9.70;;;;;;;-146.25;100.00;52514.19;2088710;28;20037;-64
2023/10/24 00:17:56;;;;;;;12.20;9.98;;;;;;;-146.25;100.00;52518.25;2087744;28;39001;-64
2023/10/24 00:18:57;;;;;;;14.57;10.00;;;;;;;-146.25;100.00;52530.41;2087565;28;33481;-64
2023/10/24 00:19:59;;;;;;;16.52;9.50;;;;;;;-146.25;100.00;52548.66;2087874;28;36677;-64
2023/10/24 00:21:03;;;;;;;14.10;9.65;;;;;;;-146.25;100.00;52538.53;2087929;28;31147;-64
2023/10/24 00:22:05;;;;;;;14.23;10.38;;;;;;;-146.25;100.00;52504.03;2088980;28;20086;-64
2023/10/24 00:23:07;;;;;;;16.48;10.27;;;;;;;-146.25;100.00;52534.47;2087784;28;39825;-64
2023/10/24 00:24:11;;;;;;;13.85;9.82;;;;;;;-146.25;100.00;52528.38;2088264;28;31000;-64
2023/10/24 00:25:14;;;;;;;13.38;9.82;;;;;;;-146.25;100.00;52524.31;2088633;28;20832;-64
2023/10/24 00:26:15;;;;;;;15.43;10.93;;;;;;;-146.25;100.00;52518.25;2087883;28;33839;-64
2023/10/24 00:27:23;;;;;;;13.15;10.77;;;;;;;-146.25;100.00;52526.34;2088278;28;20667;-64
2023/10/24 00:28:25;;;;;;;13.02;10.38;;;;;;;-146.25;100.00;52554.75;2088671;28;20040;-64
2023/10/24 00:29:28;;;;;;;15.10;10.93;;;;;;;-146.25;100.00;52554.75;2087101;28;32160;-64
2023/10/24 00:30:32;;;;;;;15.13;10.38;;;;;;;-146.25;100.00;52554.75;2079840;28;20046;-64
2023/10/24 00:31:34;;;;;;;13.23;10.05;;;;;;;-146.25;100.00;52530.41;2079223;28;30200;-64
2023/10/24 00:32:36;;;;;;;14.38;10.13;;;;;;;-146.25;100.00;52504.03;2079137;28;23746;-63
2023/10/24 00:33:38;;;;;;;13.95;10.13;;;;;;;-146.25;100.00;52497.97;2088051;28;20040;-64
2023/10/24 00:34:40;;;;;;;14.80;10.65;;;;;;;-146.25;100.00;52481.75;2086943;28;30861;-64
2023/10/24 00:35:42;;;;;;;15.00;10.85;;;;;;;-146.25;100.00;52522.28;2087301;28;26418;-64
2023/10/24 00:36:43;;;;;;;15.75;10.85;;;;;;;-146.25;100.00;52514.19;2096092;28;20727;-64
2023/10/24 00:37:48;;;;;;;15.38;10.45;;;;;;;-146.25;100.00;52493.91;2095522;28;29480;-64
2023/10/24 00:38:49;;;;;;;14.77;10.52;;;;;;;-146.25;100.00;52550.69;2088041;28;25733;-64
2023/10/24 00:39:51;;;;;;;14.63;10.88;;;;;;;-146.25;100.00;52538.53;2087922;28;27717;-64
2023/10/24 00:40:53;;;;;;;12.25;9.82;;;;;;;-146.25;100.00;52544.59;2087716;28;31482;-64
2023/10/24 00:41:55;;;;;;;14.73;10.23;;;;;;;-146.25;100.00;52534.47;2088490;28;20044;-64
2023/10/24 00:43:04;;;;;;;14.02;10.63;;;;;;;-146.25;100.00;52546.63;2087983;28;20112;-64
2023/10/24 00:44:07;;;;;;;14.48;11.05;;;;;;;-146.25;100.00;52495.94;2087899;28;34943;-64
2023/10/24 00:45:09;;;;;;;18.23;11.10;;;;;;;-146.25;100.00;52514.19;2088066;28;20151;-64
2023/10/24 00:46:11;;;;;;;13.88;10.95;;;;;;;-146.25;100.00;52506.06;2087357;28;28614;-65
2023/10/24 00:47:14;;;;;;;15.23;9.90;;;;;;;-146.25;100.00;52528.38;2087826;28;31583;-64
2023/10/24 00:48:18;;;;;;;13.57;10.25;;;;;;;-146.25;100.00;52510.13;2087429;28;20894;-64
2023/10/24 00:49:20;;;;;;;12.07;10.55;;;;;;;-146.25;100.00;52479.72;2087046;28;27881;-64
2023/10/24 00:50:22;;;;;;;13.15;10.50;;;;;;;-146.25;100.00;52502.03;2088347;28;20041;-64
2023/10/24 00:51:24;;;;;;;13.50;10.52;;;;;;;-146.25;100.00;52518.25;2087292;28;30699;-64
2023/10/24 00:52:28;;;;;;;18.20;11.38;;;;;;;-146.25;100.00;52552.72;2087309;28;30948;-65
2023/10/24 00:53:30;;;;;;;14.98;10.60;;;;;;;-146.25;100.00;52524.31;2096039;28;20095;-64
2023/10/24 00:54:34;;;;;;;15.27;11.00;;;;;;;-146.25;100.00;52516.22;2095137;28;31225;-64
2023/10/24 00:55:38;;;;;;;14.30;10.45;;;;;;;-146.25;100.00;52530.41;2088092;28;20041;-64
2023/10/24 00:56:45;;;;;;;15.13;10.30;;;;;;;-146.25;100.00;52522.28;2095516;28;30843;-65
2023/10/24 00:57:51;;;;;;;15.85;11.15;;;;;;;-146.25;100.00;52495.94;2087629;28;20987;-64
2023/10/24 00:58:54;;;;;;;15.05;10.73;;;;;;;-146.25;100.00;52530.41;2087033;28;29534;-65
2023/10/24 00:59:56;;;;;;;16.83;10.82;;;;;;;-146.25;100.00;52554.75;2086899;28;24728;-64
2023/10/24 01:01:00;;;;;;;14.32;10.40;;;;;;;-146.25;100.00;52534.47;2087452;28;27200;-64
2023/10/24 01:02:02;;;;;;;15.05;10.93;;;;;;;-146.25;100.00;52522.28;2095464;28;25577;-66
2023/10/24 01:03:04;;;;;;;15.52;10.70;;;;;;;-146.25;100.00;52534.47;2087300;28;27898;-64
2023/10/24 01:04:06;;;;;;;15.20;10.88;;;;;;;-146.25;100.00;52540.53;2087029;28;24240;-64
2023/10/24 01:05:10;;;;;;;14.57;11.15;;;;;;;-146.25;100.00;52522.28;2095911;28;22111;-65
2023/10/24 01:06:12;;;;;;;16.67;10.77;;;;;;;-146.25;100.00;52530.41;2094976;28;28300;-65
2023/10/24 01:07:14;;;;;;;14.23;11.02;;;;;;;-146.25;100.00;52526.34;2088919;28;20042;-65
2023/10/24 01:08:18;;;;;;;14.00;11.18;;;;;;;-146.25;100.00;52497.97;2087637;28;31552;-66
2023/10/24 01:09:20;;;;;;;17.77;11.88;;;;;;;-146.25;100.00;52568.94;2087796;28;25468;-66
2023/10/24 01:10:22;;;;;;;15.93;11.30;;;;;;;-146.25;100.00;52542.56;2087624;28;26269;-66
2023/10/24 01:11:25;;;;;;;19.02;12.27;;;;;;;-146.25;100.00;52502.03;2088006;28;37020;-66
2023/10/24 01:12:27;;;;;;;15.63;11.13;;;;;;;-146.25;100.00;52512.16;2088151;28;20046;-65
2023/10/24 01:13:29;;;;;;;16.23;11.70;;;;;;;-146.25;100.00;52520.28;2088306;28;20917;-65
2023/10/24 01:14:32;;;;;;;16.25;11.98;;;;;;;-146.25;100.00;52514.19;2087639;28;30685;-65
2023/10/24 01:15:34;;;;;;;20.40;11.95;;;;;;;-146.25;100.00;52510.13;2088409;28;20037;-65
2023/10/24 01:16:44;;;;;;;17.48;12.30;;;;;;;-146.25;100.00;52534.47;2095329;28;20932;-64
2023/10/24 01:17:50;;;;;;;19.35;12.98;;;;;;;-146.25;100.00;52497.97;2095307;28;21420;-64
2023/10/24 01:18:52;;;;;;;17.27;12.43;;;;;;;-146.25;100.00;52548.66;2086981;28;20177;-65
2023/10/24 01:19:54;;;;;;;18.92;12.23;;;;;;;-146.25;100.00;52500.00;2087232;28;25197;-65
2023/10/24 01:20:56;;;;;;;17.92;13.40;;;;;;;-146.25;100.00;52500.00;2088139;28;20857;-64
2023/10/24 01:21:58;;;;;;;17.83;12.30;;;;;;;-146.25;100.00;52512.16;2087479;28;31008;-64
2023/10/24 01:22:59;;;;;;;18.45;12.25;;;;;;;-146.25;100.00;52512.16;2087971;28;25826;-64
2023/10/24 01:24:04;;;;;;;20.67;12.57;;;;;;;-146.25;100.00;52540.53;2087802;28;28589;-64
2023/10/24 01:25:11;;;;;;;16.83;11.77;;;;;;;-146.25;100.00;52536.50;2095391;28;23826;-66
2023/10/24 01:26:17;;;;;;;20.15;13.82;;;;;;;-146.25;100.00;52514.19;2095638;28;20087;-65
2023/10/24 01:27:23;;;;;;;19.35;13.38;;;;;;;-146.25;100.00;52502.03;2096020;28;20041;-65
2023/10/24 01:28:28;;;;;;;20.83;14.25;;;;;;;-146.25;100.00;52534.47;2087583;28;20054;-65
2023/10/24 01:29:30;;;;;;;19.90;14.27;;;;;;;-146.25;100.00;52536.50;2080421;28;20042;-66
2023/10/24 01:30:33;;;;;;;18.13;13.80;;;;;;;-146.25;100.00;52526.34;2086662;28;36813;-66
2023/10/24 01:31:36;;;;;;;23.13;14.38;;;;;;;-146.25;100.00;52514.19;2088461;28;27113;-66
2023/10/24 01:32:38;;;;;;;21.02;14.90;;;;;;;-146.25;100.00;52508.09;2086664;28;27302;-66
2023/10/24 01:33:40;;;;;;;21.35;15.23;;;;;;;-146.25;100.00;52536.50;2087386;28;20049;-66
2023/10/24 01:34:42;;;;;;;24.30;14.60;;;;;;;-146.25;100.00;52514.19;2087695;28;20103;-67
2023/10/24 01:35:44;;;;;;;22.25;14.63;;;;;;;-146.25;100.00;52497.97;2087726;28;31478;-66
2023/10/24 01:36:46;;;;;;;22.33;15.75;;;;;;;-146.25;100.00;52506.06;2087443;28;26149;-66
2023/10/24 01:37:47;;;;;;;24.83;15.57;;;;;;;-146.25;100.00;52536.50;2087411;28;20049;-66
2023/10/24 01:38:49;;;;;;;22.90;15.15;;;;;;;-146.25;100.00;52546.63;2087939;28;30192;-66
2023/10/24 01:39:51;;;;;;;22.33;15.63;;;;;;;-146.25;100.00;52514.19;2087447;28;27390;-66
2023/10/24 01:40:53;;;;;;;26.17;15.38;;;;;;;-146.25;100.00;52528.38;2087718;28;20042;-65
2023/10/24 01:41:54;;;;;;;24.50;15.52;;;;;;;-146.25;100.00;52532.44;2088019;28;23327;-67
2023/10/24 01:42:56;;;;;;;24.70;15.90;;;;;;;-146.25;100.00;52540.53;2087581;28;29264;-67
2023/10/24 01:43:58;;;;;;;22.80;16.42;;;;;;;-146.25;100.00;52502.03;2087902;28;20157;-66
2023/10/24 01:45:00;;;;;;;25.48;16.40;;;;;;;-146.25;100.00;52534.47;2086826;28;29844;-67
2023/10/24 01:46:02;;;;;;;22.65;15.85;;;;;;;-146.25;100.00;52514.19;2078554;28;23079;-66
2023/10/24 01:47:04;;;;;;;25.92;17.05;;;;;;;-146.25;100.00;52481.75;2087915;28;21061;-67
2023/10/24 01:48:06;;;;;;;22.42;16.20;;;;;;;-146.25;100.00;52512.16;2087695;28;28961;-66
2023/10/24 01:49:08;;;;;;;29.80;16.55;;;;;;;-146.25;100.00;52514.19;2087634;28;23894;-65
2023/10/24 01:50:13;;;;;;;26.40;17.55;;;;;;;-146.25;100.00;52528.38;2087978;28;32485;-66
2023/10/24 01:51:15;;;;;;;26.23;17.75;;;;;;;-146.25;100.00;52526.34;2089078;28;29171;-67
2023/10/24 01:52:16;;;;;;;25.27;17.10;;;;;;;-146.25;100.00;52493.91;2097041;28;25506;-68
2023/10/24 01:53:22;;;;;;;24.40;17.92;;;;;;;-146.25;100.00;52538.53;2088214;28;27870;-67
2023/10/24 01:54:24;;;;;;;31.38;18.42;;;;;;;-146.25;100.00;52502.03;2088773;28;24986;-67
2023/10/24 01:55:26;;;;;;;29.88;18.38;;;;;;;-146.25;100.00;52520.28;2089071;28;32587;-67
2023/10/24 01:56:28;;;;;;;26.77;16.95;;;;;;;-146.25;100.00;52506.06;2096691;28;20110;-67
2023/10/24 01:57:29;;;;;;;27.13;17.13;;;;;;;-146.25;100.00;52506.06;2089069;28;20180;-67
2023/10/24 01:58:31;;;;;;;27.40;18.23;;;;;;;-146.25;100.00;52544.59;2088467;28;20152;-67
2023/10/24 01:59:33;;;;;;;29.73;18.98;;;;;;;-146.25;100.00;52497.97;2088668;28;20171;-68
2023/10/24 02:00:35;;;;;;;30.42;18.73;;;;;;;-146.25;100.00;52520.28;2087967;28;20208;-67
2023/10/24 02:01:36;;;;;;;31.67;18.40;;;;;;;-146.25;100.00;52497.97;2096815;28;27844;-67
2023/10/24 02:02:38;;;;;;;32.97;18.10;;;;;;;-146.25;100.00;52504.03;2087916;28;29309;-67
2023/10/24 02:03:44;;;;;;;31.52;19.33;;;;;;;-146.25;100.00;52530.41;2088802;28;20058;-67
2023/10/24 02:04:46;;;;;;;29.98;19.52;;;;;;;-146.25;100.00;52528.38;2088375;28;29903;-66
2023/10/24 02:05:48;;;;;;;31.13;18.85;;;;;;;-146.25;100.00;52504.03;2088456;28;25450;-67
2023/10/24 02:06:49;;;;;;;30.73;19.25;;;;;;;-146.25;100.00;52518.25;2079846;28;32684;-67
2023/10/24 02:07:53;;;;;;;34.10;20.10;;;;;;;-146.25;100.00;52534.47;2088633;28;27963;-67
2023/10/24 02:08:58;;;;;;;34.30;19.83;;;;;;;-146.25;100.00;52512.16;2089215;28;20139;-67
2023/10/24 02:09:59;;;;;;;35.63;19.92;;;;;;;-146.25;100.00;52487.81;2089014;28;33145;-67
2023/10/24 02:11:01;;;;;;;30.42;19.77;;;;;;;-146.25;100.00;52522.28;2088887;28;25369;-68
2023/10/24 02:12:04;;;;;;;32.25;19.13;;;;;;;-146.25;100.00;52524.31;2088434;28;20080;-68
2023/10/24 02:13:08;;;;;;;31.55;20.30;;;;;;;-146.25;100.00;52520.28;2088402;28;26592;-67
2023/10/24 02:14:09;;;;;;;33.40;19.60;;;;;;;-146.25;100.00;52473.63;2089313;28;21032;-67
2023/10/24 02:15:11;;;;;;;35.03;20.33;;;;;;;-146.25;100.00;52504.03;2088212;28;20271;-67
2023/10/24 02:16:13;;;;;;;31.92;20.38;;;;;;;-146.25;100.00;52508.09;2088158;28;27867;-66
2023/10/24 02:17:15;;;;;;;31.20;20.98;;;;;;;-146.25;100.00;52526.34;2088318;28;30618;-67
2023/10/24 02:18:19;;;;;;;37.75;21.17;;;;;;;-146.25;100.00;52510.13;2088189;28;27841;-66
2023/10/24 02:19:21;;;;;;;35.65;20.08;;;;;;;-146.25;100.00;52504.03;2087969;28;31913;-66
2023/10/24 02:20:23;;;;;;;32.50;20.58;;;;;;;-146.25;100.00;52504.03;2096406;28;27291;-66
2023/10/24 02:21:25;;;;;;;35.35;21.08;;;;;;;-146.25;100.00;52512.16;2089484;28;20810;-65
2023/10/24 02:22:29;;;;;;;35.13;21.17;;;;;;;-146.25;100.00;52514.19;2089841;28;20045;-65
2023/10/24 02:23:31;;;;;;;34.33;21.15;;;;;;;-146.25;100.00;52526.34;2088723;28;28224;-67
2023/10/24 02:24:33;;;;;;;36.58;20.60;;;;;;;-146.25;100.00;52497.97;2089060;28;24665;-67
2023/10/24 02:25:36;;;;;;;38.17;21.35;;;;;;;-146.25;100.00;52516.22;2088965;28;25989;-67
2023/10/24 02:26:38;;;;;;;34.47;21.20;;;;;;;-146.25;100.00;52522.28;2088883;28;33497;-66
2023/10/24 02:27:40;;;;;;;37.42;21.92;;;;;;;-146.25;100.00;52536.50;2087821;28;28033;-67
2023/10/24 02:28:42;;;;;;;40.25;21.25;;;;;;;-146.25;100.00;52518.25;2087947;28;29835;-67
2023/10/24 02:29:46;;;;;;;41.33;22.70;;;;;;;-146.25;100.00;52532.44;2087992;28;20044;-67
2023/10/24 02:30:47;;;;;;;38.80;21.60;;;;;;;-146.25;100.00;52520.28;2088044;28;26884;-67
2023/10/24 02:31:49;;;;;;;41.30;22.02;;;;;;;-146.25;100.00;52518.25;2087793;28;35811;-67
2023/10/24 02:32:51;;;;;;;39.35;21.38;;;;;;;-146.25;100.00;52520.28;2088489;28;20034;-67
2023/10/24 02:33:54;;;;;;;40.25;21.45;;;;;;;-146.25;100.00;52516.22;2088250;28;20041;-66
2023/10/24 02:34:56;;;;;;;37.33;22.80;;;;;;;-146.25;100.00;52487.81;2088042;28;32079;-66
2023/10/24 02:36:11;;;;;;;37.08;22.05;;;;;;;-146.25;100.00;52510.13;2089305;28;20049;-66
2023/10/24 02:37:13;;;;;;;38.40;22.17;;;;;;;-146.25;100.00;52536.50;2088462;28;38825;-66
2023/10/24 02:38:16;;;;;;;39.92;21.92;;;;;;;-146.25;100.00;52481.75;2096572;28;23739;-66
2023/10/24 02:39:19;;;;;;;38.88;22.73;;;;;;;-146.25;100.00;52481.75;2088125;28;20093;-66
2023/10/24 02:40:22;;;;;;;34.40;22.35;;;;;;;-146.25;100.00;52481.75;2088384;28;20038;-66
2023/10/24 02:41:26;;;;;;;37.13;22.25;;;;;;;-146.25;100.00;52532.44;2088230;28;25878;-66
2023/10/24 02:42:28;;;;;;;34.75;20.77;;;;;;;-146.25;100.00;52508.09;2088581;28;31260;-66
2023/10/24 02:43:30;;;;;;;36.10;22.33;;;;;;;-146.25;100.00;52506.06;2096257;28;33721;-65
2023/10/24 02:44:32;;;;;;;40.17;23.08;;;;;;;-146.25;100.00;52528.38;2095937;28;28414;-65
2023/10/24 02:45:38;;;;;;;42.78;22.88;;;;;;;-146.25;100.00;52520.28;2087857;28;20047;-65
2023/10/24 02:46:40;;;;;;;37.85;21.88;;;;;;;-146.25;100.00;52477.69;2088309;28;30625;-66
2023/10/24 02:47:41;;;;;;;41.45;22.55;;;;;;;-146.25;100.00;52469.56;2088468;28;29072;-66
2023/10/24 02:48:43;;;;;;;39.45;22.67;;;;;;;-146.25;100.00;52522.28;2088671;28;25960;-65
2023/10/24 02:49:45;;;;;;;38.95;22.08;;;;;;;-146.25;100.00;52485.81;2088615;28;24328;-65
2023/10/24 02:50:56;;;;;;;34.78;21.88;;;;;;;-146.25;100.00;52479.72;2088773;28;29023;-65
2023/10/24 02:52:00;;;;;;;41.28;23.02;;;;;;;-146.25;100.00;52522.28;2089724;28;20053;-65
2023/10/24 02:53:06;;;;;;;38.60;23.27;;;;;;;-146.25;100.00;52512.16;2088674;28;30295;-66
2023/10/24 02:54:08;;;;;;;39.72;22.50;;;;;;;-146.25;100.00;52514.19;2088611;28;20243;-65
2023/10/24 02:55:12;;;;;;;40.55;23.20;;;;;;;-146.25;100.00;52522.28;2089019;28;22278;-66
2023/10/24 02:56:14;;;;;;;36.25;22.13;;;;;;;-146.25;100.00;52485.81;2088551;28;28937;-65
2023/10/24 02:57:17;;;;;;;39.40;23.67;;;;;;;-146.25;100.00;52510.13;2089002;28;28924;-66
2023/10/24 02:58:19;;;;;;;38.10;22.40;;;;;;;-146.25;100.00;52489.84;2088528;28;27648;-66
2023/10/24 02:59:23;;;;;;;39.95;22.35;;;;;;;-146.25;100.00;52489.84;2089596;28;20187;-66
2023/10/24 03:00:27;;;;;;;35.42;22.42;;;;;;;-146.25;100.00;52497.97;2087819;28;29721;-66
2023/10/24 03:01:29;;;;;;;37.78;22.27;;;;;;;-146.25;100.00;52512.16;2088265;28;33609;-66
2023/10/24 03:02:31;;;;;;;37.35;22.55;;;;;;;-146.25;100.00;52514.19;2096004;28;30441;-65
2023/10/24 03:03:33;;;;;;;40.45;23.77;;;;;;;-146.25;100.00;52518.25;2087564;28;35612;-65
2023/10/24 03:04:35;;;;;;;38.80;24.02;;;;;;;-146.25;100.00;52532.44;2080871;28;20172;-66
2023/10/24 03:05:38;;;;;;;34.78;22.83;;;;;;;-146.25;100.00;52536.50;2079402;28;30948;-66
2023/10/24 03:06:42;;;;;;;42.15;22.33;;;;;;;-146.25;100.00;52520.28;2071013;28;31288;-65
2023/10/24 03:07:45;;;;;;;41.08;23.27;;;;;;;-146.25;100.00;52518.25;2080327;28;20180;-65
2023/10/24 03:08:48;;;;;;;39.85;23.95;;;;;;;-146.25;100.00;52518.25;2079266;28;33006;-66
2023/10/24 03:09:50;;;;;;;39.72;22.13;;;;;;;-146.25;100.00;52522.28;2072193;28;27230;-65
2023/10/24 03:10:52;;;;;;;39.63;23.65;;;;;;;-146.25;100.00;52508.09;2079751;28;30121;-65
2023/10/24 03:11:54;;;;;;;37.40;23.40;;;;;;;-146.25;100.00;52512.16;2079736;28;29236;-65
2023/10/24 03:12:56;;;;;;;37.85;22.98;;;;;;;-146.25;100.00;52542.56;2079825;28;23176;-65
2023/10/24 03:13:58;;;;;;;41.50;23.48;;;;;;;-146.25;100.00;52536.50;2080515;28;20585;-65
2023/10/24 03:15:03;;;;;;;35.97;23.02;;;;;;;-146.25;100.00;52528.38;2088038;28;20184;-65
2023/10/24 03:16:06;;;;;;;40.13;22.83;;;;;;;-146.25;100.00;52514.19;2072161;28;20023;-65
2023/10/24 03:17:08;;;;;;;40.17;24.02;;;;;;;-146.25;100.00;52542.56;2071361;28;35382;-64
2023/10/24 03:18:10;;;;;;;36.95;23.13;;;;;;;-146.25;100.00;52518.25;2071896;28;27332;-65
2023/10/24 03:19:14;;;;;;;43.60;23.58;;;;;;;-146.25;100.00;52516.22;2071421;28;20120;-64
2023/10/24 03:20:16;;;;;;;37.83;22.73;;;;;;;-146.25;100.00;52502.03;2079909;28;26385;-65
2023/10/24 03:21:19;;;;;;;39.15;22.52;;;;;;;-146.25;100.00;52552.72;2080899;28;20096;-65
2023/10/24 03:22:24;;;;;;;37.60;23.23;;;;;;;-146.25;100.00;52504.03;2080294;28;31850;-65
2023/10/24 03:23:25;;;;;;;38.13;22.75;;;;;;;-146.25;100.00;52504.03;2080449;28;21912;-64
2023/10/24 03:24:28;;;;;;;42.95;23.55;;;;;;;-146.25;100.00;52493.91;2088031;28;29120;-65
2023/10/24 03:25:30;;;;;;;36.63;22.85;;;;;;;-146.25;100.00;52526.34;2087355;28;32067;-65
2023/10/24 03:26:32;;;;;;;39.30;22.98;;;;;;;-146.25;100.00;52504.03;2080242;28;30329;-65
2023/10/24 03:27:34;;;;;;;39.47;23.42;;;;;;;-146.25;100.00;52500.00;2080165;28;33852;-65
2023/10/24 03:28:36;;;;;;;44.08;24.35;;;;;;;-146.25;100.00;52493.91;2088259;28;20042;-65
2023/10/24 03:29:40;;;;;;;37.10;22.98;;;;;;;-146.25;100.00;52508.09;2079127;28;23497;-65
2023/10/24 03:30:44;;;;;;;38.65;22.90;;;;;;;-146.25;100.00;52526.34;2079546;28;34660;-65
2023/10/24 03:31:48;;;;;;;33.25;21.25;;;;;;;-146.25;100.00;52514.19;2080038;28;32328;-65
2023/10/24 03:32:52;;;;;;;36.88;23.42;;;;;;;-146.25;100.00;52518.25;2087621;28;34659;-65
2023/10/24 03:33:54;;;;;;;40.08;24.58;;;;;;;-146.25;100.00;52538.53;2079106;28;35633;-65
2023/10/24 03:34:56;;;;;;;38.50;23.05;;;;;;;-146.25;100.00;52510.13;2082082;28;28583;-65
2023/10/24 03:36:01;;;;;;;39.97;23.05;;;;;;;-146.25;100.00;52526.34;2088431;28;20041;-65
2023/10/24 03:37:03;;;;;;;41.83;23.25;;;;;;;-146.25;100.00;52481.75;2088144;28;33622;-65
2023/10/24 03:38:05;;;;;;;35.60;22.90;;;;;;;-146.25;100.00;52491.88;2088143;28;37883;-65
2023/10/24 03:39:06;;;;;;;39.20;23.10;;;;;;;-146.25;100.00;52485.81;2088355;28;33251;-65
2023/10/24 03:40:11;;;;;;;32.85;22.67;;;;;;;-146.25;100.00;52493.91;2087725;28;35177;-65
2023/10/24 03:41:13;;;;;;;36.38;22.98;;;;;;;-146.25;100.00;52467.56;2095835;28;36875;-65
2023/10/24 03:42:15;;;;;;;41.38;22.67;;;;;;;-146.25;100.00;52485.81;2087695;28;32367;-65
2023/10/24 03:43:18;;;;;;;33.45;22.50;;;;;;;-146.25;100.00;52491.88;2087939;28;35763;-65
2023/10/24 03:44:20;;;;;;;35.42;23.30;;;;;;;-146.25;100.00;52495.94;2088035;28;34975;-65
2023/10/24 03:45:22;;;;;;;34.25;22.83;;;;;;;-146.25;100.00;52508.09;2088197;28;32715;-65
2023/10/24 03:46:24;;;;;;;34.40;22.15;;;;;;;-146.25;100.00;52514.19;2087591;28;37936;-64
2023/10/24 03:47:25;;;;;;;36.85;22.50;;;;;;;-146.25;100.00;52542.56;2089276;28;20163;-64
2023/10/24 03:48:27;;;;;;;33.47;22.05;;;;;;;-146.25;100.00;52495.94;2087837;28;38613;-65
2023/10/24 03:49:29;;;;;;;36.83;22.70;;;;;;;-146.25;100.00;52512.16;2087943;28;34930;-65
2023/10/24 03:50:39;;;;;;;36.00;21.98;;;;;;;-146.25;100.00;52540.53;2088068;28;33106;-65
2023/10/24 03:51:41;;;;;;;35.17;22.90;;;;;;;-146.25;100.00;52534.47;2096113;28;37563;-65
2023/10/24 03:52:45;;;;;;;32.50;22.05;;;;;;;-146.25;100.00;52532.44;2094583;28;33523;-65
2023/10/24 03:53:48;;;;;;;32.85;21.77;;;;;;;-146.25;100.00;52536.50;2088256;28;35253;-65
2023/10/24 03:54:50;;;;;;;33.17;21.98;;;;;;;-146.25;100.00;52528.38;2087792;28;37837;-64
2023/10/24 03:55:59;;;;;;;32.20;20.60;;;;;;;-146.25;100.00;52506.06;2088232;28;32563;-64
2023/10/24 03:57:03;;;;;;;35.55;22.75;;;;;;;-146.25;100.00;52514.19;2095695;28;36494;-65
2023/10/24 03:58:05;;;;;;;30.92;20.75;;;;;;;-146.25;100.00;52530.41;2088372;28;20155;-63
2023/10/24 03:59:07;;;;;;;29.80;21.08;;;;;;;-146.25;100.00;52510.13;2087357;28;37676;-65
2023/10/24 04:00:09;;;;;;;29.08;20.98;;;;;;;-146.25;100.00;52506.06;2087670;28;38853;-64
2023/10/24 04:01:13;;;;;;;29.88;21.25;;;;;;;-146.25;100.00;52514.19;2088394;28;20038;-65
2023/10/24 04:02:15;;;;;;;31.40;20.45;;;;;;;-146.25;100.00;52593.25;2088172;28;37839;-65
2023/10/24 04:03:17;;;;;;;30.20;21.67;;;;;;;-146.25;100.00;52508.09;2088664;28;20048;-65
2023/10/24 04:04:24;;;;;;;31.20;21.33;;;;;;;-146.25;100.00;52508.09;2087626;28;36614;-65
2023/10/24 04:05:26;;;;;;;33.83;21.25;;;;;;;-146.25;100.00;52485.81;2087978;28;34955;-65
2023/10/24 04:06:28;;;;;;;29.85;21.58;;;;;;;-146.25;100.00;52453.34;2096206;28;30589;-65
2023/10/24 04:07:30;;;;;;;29.77;21.40;;;;;;;-146.25;100.00;52518.25;2095683;28;38527;-66
2023/10/24 04:08:34;;;;;;;31.27;21.67;;;;;;;-146.25;100.00;52518.25;2088800;28;20042;-66
2023/10/24 04:09:36;;;;;;;30.70;22.02;;;;;;;-146.25;100.00;52493.91;2087967;28;35639;-66
2023/10/24 04:10:44;;;;;;;34.25;22.58;;;;;;;-146.25;100.00;52500.00;2088393;28;36969;-70
2023/10/24 04:11:46;;;;;;;32.53;21.73;;;;;;;-146.25;100.00;52516.22;2088867;28;20801;-67
2023/10/24 04:12:52;;;;;;;32.70;22.52;;;;;;;-146.25;100.00;52506.06;2088090;28;20077;-66
2023/10/24 04:13:53;;;;;;;31.98;22.60;;;;;;;-146.25;100.00;52516.22;2087630;28;35059;-67
2023/10/24 04:14:57;;;;;;;29.67;21.02;;;;;;;-146.25;100.00;52487.81;2088255;28;33865;-67
2023/10/24 04:15:59;;;;;;;34.65;23.60;;;;;;;-146.25;100.00;52516.22;2087798;28;33631;-67
2023/10/24 04:17:01;;;;;;;30.55;22.63;;;;;;;-146.25;100.00;52518.25;2087907;28;35557;-68
2023/10/24 04:18:03;;;;;;;33.28;24.15;;;;;;;-146.25;100.00;52506.06;2087817;28;32694;-68
2023/10/24 04:19:05;;;;;;;28.48;22.30;;;;;;;-146.25;100.00;52538.53;2088002;28;39083;-67
2023/10/24 04:20:08;;;;;;;32.30;23.77;;;;;;;-146.25;100.00;52534.47;2088455;28;20596;-67
2023/10/24 04:21:16;;;;;;;30.58;23.60;;;;;;;-146.25;100.00;52546.63;2087904;28;20103;-67
2023/10/24 04:22:17;;;;;;;26.08;20.65;;;;;;;-146.25;100.00;52510.13;2087221;28;36613;-68
2023/10/24 04:23:19;;;;;;;28.25;22.15;;;;;;;-146.25;100.00;52510.13;2088001;28;35210;-67
2023/10/24 04:24:21;;;;;;;31.33;23.17;;;;;;;-146.25;100.00;52508.09;2087871;28;36039;-67
2023/10/24 04:25:23;;;;;;;31.05;24.08;;;;;;;-146.25;100.00;52534.47;2087665;28;38319;-67
2023/10/24 04:26:24;;;;;;;32.75;22.42;;;;;;;-146.25;100.00;52489.84;2088091;28;31426;-67
2023/10/24 04:27:28;;;;;;;32.38;23.35;;;;;;;-146.25;100.00;52542.56;2095644;28;37329;-66
2023/10/24 04:28:30;;;;;;;33.45;24.10;;;;;;;-146.25;100.00;52495.94;2087836;28;33611;-66
2023/10/24 04:29:32;;;;;;;30.38;22.75;;;;;;;-146.25;100.00;52514.19;2087074;28;36041;-66
2023/10/24 04:30:34;;;;;;;28.75;23.25;;;;;;;-146.25;100.00;52510.13;2087584;28;37669;-66
2023/10/24 04:31:35;;;;;;;31.85;23.60;;;;;;;-146.25;100.00;52528.38;2088324;28;24708;-66
2023/10/24 04:32:39;;;;;;;33.30;23.60;;;;;;;-146.25;100.00;52532.44;2087830;28;34525;-67
2023/10/24 04:33:41;;;;;;;34.25;24.48;;;;;;;-146.25;100.00;52514.19;2087850;28;32181;-66
2023/10/24 04:34:43;;;;;;;30.30;23.58;;;;;;;-146.25;100.00;52520.28;2087927;28;20989;-67
2023/10/24 04:35:47;;;;;;;31.92;24.17;;;;;;;-146.25;100.00;52534.47;2088137;28;37883;-67
2023/10/24 04:36:49;;;;;;;34.63;24.83;;;;;;;-146.25;100.00;52504.03;2095282;28;33819;-67
2023/10/24 04:37:54;;;;;;;30.25;23.35;;;;;;;-146.25;100.00;52524.31;2094956;28;34998;-67
2023/10/24 04:38:55;;;;;;;32.20;23.98;;;;;;;-146.25;100.00;52477.69;2087892;28;35145;-66